sensor_id;sensor_type;location;lat;lon;timestamp;temperature;humidity
14079;DHT22;7115;50.150;8.568;2023-04-25T00:00:46;9.90;99.90
14079;DHT22;7115;50.150;8.568;2023-04-25T00:03:13;9.90;99.90
14079;DHT22;7115;50.150;8.568;2023-04-25T00:05:47;9.90;99.90
14079;DHT22;7115;50.150;8.568;2023-04-25T00:08:16;9.90;99.90
14079;DHT22;7115;50.150;8.568;2023-04-25T00:10:43;9.90;99.90
14079;DHT22;7115;50.150;8.568;2023-04-25T00:13:16;9.80;99.90
14079;DHT22;7115;50.150;8.568;2023-04-25T00:15:44;9.80;99.90
14079;DHT22;7115;50.150;8.568;2023-04-25T00:18:11;9.80;99.90
14079;DHT22;7115;50.150;8.568;2023-04-25T00:20:44;9.90;99.90
14079;DHT22;7115;50.150;8.568;2023-04-25T00:23:13;9.90;99.90
14079;DHT22;7115;50.150;8.568;2023-04-25T00:25:46;9.80;99.90
14079;DHT22;7115;50.150;8.568;2023-04-25T00:28:20;9.80;99.90
14079;DHT22;7115;50.150;8.568;2023-04-25T00:30:47;9.70;99.90
14079;DHT22;7115;50.150;8.568;2023-04-25T00:33:13;9.70;99.90
14079;DHT22;7115;50.150;8.568;2023-04-25T00:35:47;9.60;99.90
14079;DHT22;7115;50.150;8.568;2023-04-25T00:38:14;9.60;99.90
14079;DHT22;7115;50.150;8.568;2023-04-25T00:41:02;9.60;99.90
14079;DHT22;7115;50.150;8.568;2023-04-25T00:43:30;9.50;99.90
14079;DHT22;7115;50.150;8.568;2023-04-25T00:46:05;9.60;99.90
14079;DHT22;7115;50.150;8.568;2023-04-25T00:48:32;9.60;99.90
14079;DHT22;7115;50.150;8.568;2023-04-25T00:50:59;9.60;99.90
14079;DHT22;7115;50.150;8.568;2023-04-25T00:53:33;9.60;99.90
14079;DHT22;7115;50.150;8.568;2023-04-25T00:56:01;9.50;99.90
14079;DHT22;7115;50.150;8.568;2023-04-25T00:58:28;9.50;99.90
14079;DHT22;7115;50.150;8.568;2023-04-25T01:01:02;9.50;99.90
14079;DHT22;7115;50.150;8.568;2023-04-25T01:03:31;9.50;99.90
14079;DHT22;7115;50.150;8.568;2023-04-25T01:05:59;9.40;99.90
14079;DHT22;7115;50.150;8.568;2023-04-25T01:08:33;9.50;99.90
14079;DHT22;7115;50.150;8.568;2023-04-25T01:11:02;9.50;99.90
14079;DHT22;7115;50.150;8.568;2023-04-25T01:13:29;9.60;99.90
14079;DHT22;7115;50.150;8.568;2023-04-25T01:16:03;9.70;99.90
14079;DHT22;7115;50.150;8.568;2023-04-25T01:18:30;9.70;99.90
14079;DHT22;7115;50.150;8.568;2023-04-25T01:21:02;9.80;99.90
14079;DHT22;7115;50.150;8.568;2023-04-25T01:23:36;9.90;99.90
14079;DHT22;7115;50.150;8.568;2023-04-25T01:26:04;9.90;99.90
14079;DHT22;7115;50.150;8.568;2023-04-25T01:28:33;10.00;99.90
14079;DHT22;7115;50.150;8.568;2023-04-25T01:31:07;10.00;99.90
14079;DHT22;7115;50.150;8.568;2023-04-25T01:33:34;10.10;99.90
14079;DHT22;7115;50.150;8.568;2023-04-25T01:36:03;10.10;99.90
14079;DHT22;7115;50.150;8.568;2023-04-25T01:38:37;10.10;99.90
14079;DHT22;7115;50.150;8.568;2023-04-25T01:41:17;10.10;99.90
14079;DHT22;7115;50.150;8.568;2023-04-25T01:43:51;10.10;99.90
14079;DHT22;7115;50.150;8.568;2023-04-25T01:46:18;10.10;99.90
14079;DHT22;7115;50.150;8.568;2023-04-25T01:48:46;10.10;99.90
14079;DHT22;7115;50.150;8.568;2023-04-25T01:51:20;10.00;99.90
14079;DHT22;7115;50.150;8.568;2023-04-25T01:53:47;10.00;99.90
14079;DHT22;7115;50.150;8.568;2023-04-25T01:56:14;9.90;99.90
14079;DHT22;7115;50.150;8.568;2023-04-25T01:58:48;9.70;99.90
14079;DHT22;7115;50.150;8.568;2023-04-25T02:01:15;9.70;99.90
14079;DHT22;7115;50.150;8.568;2023-04-25T02:03:43;9.60;99.90
14079;DHT22;7115;50.150;8.568;2023-04-25T02:06:17;9.60;99.90
14079;DHT22;7115;50.150;8.568;2023-04-25T02:08:45;9.50;99.90
14079;DHT22;7115;50.150;8.568;2023-04-25T02:11:13;9.50;99.90
14079;DHT22;7115;50.150;8.568;2023-04-25T02:13:46;9.40;99.90
14079;DHT22;7115;50.150;8.568;2023-04-25T02:16:13;9.30;99.90
14079;DHT22;7115;50.150;8.568;2023-04-25T02:18:40;9.30;99.90
14079;DHT22;7115;50.150;8.568;2023-04-25T02:21:14;9.30;99.90
14079;DHT22;7115;50.150;8.568;2023-04-25T02:23:41;9.20;99.90
14079;DHT22;7115;50.150;8.568;2023-04-25T02:26:10;9.10;99.90
14079;DHT22;7115;50.150;8.568;2023-04-25T02:28:46;9.20;99.90
14079;DHT22;7115;50.150;8.568;2023-04-25T02:31:13;9.20;99.90
14079;DHT22;7115;50.150;8.568;2023-04-25T02:33:39;9.20;99.90
14079;DHT22;7115;50.150;8.568;2023-04-25T02:36:13;9.20;99.90
14079;DHT22;7115;50.150;8.568;2023-04-25T02:38:40;9.20;99.90
14079;DHT22;7115;50.150;8.568;2023-04-25T02:41:28;9.20;99.90
14079;DHT22;7115;50.150;8.568;2023-04-25T02:43:55;9.20;99.90
14079;DHT22;7115;50.150;8.568;2023-04-25T02:46:29;9.20;99.90
14079;DHT22;7115;50.150;8.568;2023-04-25T02:49:05;9.20;99.90
14079;DHT22;7115;50.150;8.568;2023-04-25T02:51:39;9.10;99.90
14079;DHT22;7115;50.150;8.568;2023-04-25T02:54:06;9.20;99.90
14079;DHT22;7115;50.150;8.568;2023-04-25T02:56:34;9.20;99.90
14079;DHT22;7115;50.150;8.568;2023-04-25T02:59:08;9.20;99.90
14079;DHT22;7115;50.150;8.568;2023-04-25T03:01:34;9.20;99.90
14079;DHT22;7115;50.150;8.568;2023-04-25T03:04:01;9.30;99.90
14079;DHT22;7115;50.150;8.568;2023-04-25T03:06:35;9.30;99.90
14079;DHT22;7115;50.150;8.568;2023-04-25T03:09:02;9.30;99.90
14079;DHT22;7115;50.150;8.568;2023-04-25T03:11:29;9.30;99.90
14079;DHT22;7115;50.150;8.568;2023-04-25T03:14:03;9.40;99.90
14079;DHT22;7115;50.150;8.568;2023-04-25T03:16:30;9.40;99.90
14079;DHT22;7115;50.150;8.568;2023-04-25T03:18:57;9.40;99.90
14079;DHT22;7115;50.150;8.568;2023-04-25T03:21:31;9.40;99.90
14079;DHT22;7115;50.150;8.568;2023-04-25T03:23:59;9.50;99.90
14079;DHT22;7115;50.150;8.568;2023-04-25T03:26:26;9.40;99.90
14079;DHT22;7115;50.150;8.568;2023-04-25T03:28:59;9.40;99.90
14079;DHT22;7115;50.150;8.568;2023-04-25T03:31:27;9.40;99.90
14079;DHT22;7115;50.150;8.568;2023-04-25T03:33:54;9.50;99.90
14079;DHT22;7115;50.150;8.568;2023-04-25T03:36:27;9.50;99.90
14079;DHT22;7115;50.150;8.568;2023-04-25T03:38:53;9.50;99.90
14079;DHT22;7115;50.150;8.568;2023-04-25T03:41:41;9.50;99.90
14079;DHT22;7115;50.150;8.568;2023-04-25T03:44:07;9.40;99.90
14079;DHT22;7115;50.150;8.568;2023-04-25T03:46:42;9.40;99.90
14079;DHT22;7115;50.150;8.568;2023-04-25T03:49:09;9.40;99.90
14079;DHT22;7115;50.150;8.568;2023-04-25T03:51:36;9.50;99.90
14079;DHT22;7115;50.150;8.568;2023-04-25T03:54:09;9.50;99.90
14079;DHT22;7115;50.150;8.568;2023-04-25T03:56:35;9.50;99.90
14079;DHT22;7115;50.150;8.568;2023-04-25T03:59:02;9.60;99.90
14079;DHT22;7115;50.150;8.568;2023-04-25T04:01:36;9.60;99.90
14079;DHT22;7115;50.150;8.568;2023-04-25T04:04:04;9.60;99.90
14079;DHT22;7115;50.150;8.568;2023-04-25T04:06:32;9.60;99.90
14079;DHT22;7115;50.150;8.568;2023-04-25T04:09:06;9.70;99.90
14079;DHT22;7115;50.150;8.568;2023-04-25T04:11:36;9.70;99.90
14079;DHT22;7115;50.150;8.568;2023-04-25T04:14:05;9.70;99.90
14079;DHT22;7115;50.150;8.568;2023-04-25T04:16:39;9.70;99.90
14079;DHT22;7115;50.150;8.568;2023-04-25T04:19:07;9.70;99.90
14079;DHT22;7115;50.150;8.568;2023-04-25T04:21:34;9.70;99.90
14079;DHT22;7115;50.150;8.568;2023-04-25T04:24:07;9.70;99.90
14079;DHT22;7115;50.150;8.568;2023-04-25T04:26:34;9.70;99.90
14079;DHT22;7115;50.150;8.568;2023-04-25T04:29:01;9.70;99.90
14079;DHT22;7115;50.150;8.568;2023-04-25T04:31:34;9.70;99.90
14079;DHT22;7115;50.150;8.568;2023-04-25T04:34:01;9.60;99.90
14079;DHT22;7115;50.150;8.568;2023-04-25T04:36:29;9.60;99.90
14079;DHT22;7115;50.150;8.568;2023-04-25T04:39:05;9.60;99.90
14079;DHT22;7115;50.150;8.568;2023-04-25T04:41:45;9.70;99.90
14079;DHT22;7115;50.150;8.568;2023-04-25T04:44:18;9.60;99.90
14079;DHT22;7115;50.150;8.568;2023-04-25T04:46:45;9.60;99.90
14079;DHT22;7115;50.150;8.568;2023-04-25T04:49:13;9.60;99.90
14079;DHT22;7115;50.150;8.568;2023-04-25T04:51:48;9.70;99.90
14079;DHT22;7115;50.150;8.568;2023-04-25T04:54:16;9.70;99.90
14079;DHT22;7115;50.150;8.568;2023-04-25T04:56:43;9.60;99.90
14079;DHT22;7115;50.150;8.568;2023-04-25T04:59:16;9.70;99.90
14079;DHT22;7115;50.150;8.568;2023-04-25T05:01:42;9.70;99.90
14079;DHT22;7115;50.150;8.568;2023-04-25T05:04:09;9.60;99.90
14079;DHT22;7115;50.150;8.568;2023-04-25T05:06:43;9.70;99.90
14079;DHT22;7115;50.150;8.568;2023-04-25T05:09:15;9.60;99.90
14079;DHT22;7115;50.150;8.568;2023-04-25T05:11:42;9.70;99.90
14079;DHT22;7115;50.150;8.568;2023-04-25T05:14:16;9.70;99.90
14079;DHT22;7115;50.150;8.568;2023-04-25T05:16:43;9.70;99.90
14079;DHT22;7115;50.150;8.568;2023-04-25T05:19:10;9.70;99.90
14079;DHT22;7115;50.150;8.568;2023-04-25T05:21:44;9.70;99.90
14079;DHT22;7115;50.150;8.568;2023-04-25T05:24:11;9.70;99.90
14079;DHT22;7115;50.150;8.568;2023-04-25T05:26:39;9.70;99.90
14079;DHT22;7115;50.150;8.568;2023-04-25T05:29:13;9.70;99.90
14079;DHT22;7115;50.150;8.568;2023-04-25T05:31:40;9.80;99.90
14079;DHT22;7115;50.150;8.568;2023-04-25T05:34:06;9.80;99.90
14079;DHT22;7115;50.150;8.568;2023-04-25T05:36:40;9.90;99.90
14079;DHT22;7115;50.150;8.568;2023-04-25T05:39:07;9.90;99.90
14079;DHT22;7115;50.150;8.568;2023-04-25T05:41:55;10.00;99.90
14079;DHT22;7115;50.150;8.568;2023-04-25T05:44:22;10.10;99.90
14079;DHT22;7115;50.150;8.568;2023-04-25T05:46:55;10.10;99.90
14079;DHT22;7115;50.150;8.568;2023-04-25T05:49:22;10.10;99.90
14079;DHT22;7115;50.150;8.568;2023-04-25T05:51:48;10.10;99.90
14079;DHT22;7115;50.150;8.568;2023-04-25T05:54:22;10.00;99.90
14079;DHT22;7115;50.150;8.568;2023-04-25T05:56:49;10.10;99.90
14079;DHT22;7115;50.150;8.568;2023-04-25T05:59:17;10.10;99.90
14079;DHT22;7115;50.150;8.568;2023-04-25T06:01:51;10.10;99.90
14079;DHT22;7115;50.150;8.568;2023-04-25T06:04:18;10.10;99.90
14079;DHT22;7115;50.150;8.568;2023-04-25T06:06:46;10.20;99.90
14079;DHT22;7115;50.150;8.568;2023-04-25T06:09:19;10.20;99.90
14079;DHT22;7115;50.150;8.568;2023-04-25T06:11:46;10.20;99.90
14079;DHT22;7115;50.150;8.568;2023-04-25T06:14:12;10.10;99.90
14079;DHT22;7115;50.150;8.568;2023-04-25T06:16:47;10.00;99.90
14079;DHT22;7115;50.150;8.568;2023-04-25T06:19:15;10.00;99.90
14079;DHT22;7115;50.150;8.568;2023-04-25T06:21:43;10.00;99.90
14079;DHT22;7115;50.150;8.568;2023-04-25T06:24:17;10.00;99.90
14079;DHT22;7115;50.150;8.568;2023-04-25T06:26:44;10.00;99.90
14079;DHT22;7115;50.150;8.568;2023-04-25T06:29:10;10.00;99.90
14079;DHT22;7115;50.150;8.568;2023-04-25T06:31:44;10.00;99.90
14079;DHT22;7115;50.150;8.568;2023-04-25T06:34:12;10.10;99.90
14079;DHT22;7115;50.150;8.568;2023-04-25T06:36:39;10.20;99.90
14079;DHT22;7115;50.150;8.568;2023-04-25T06:39:14;10.20;99.90
14079;DHT22;7115;50.150;8.568;2023-04-25T06:41:56;10.20;99.90
14079;DHT22;7115;50.150;8.568;2023-04-25T06:44:29;10.20;99.90
14079;DHT22;7115;50.150;8.568;2023-04-25T06:46:57;10.20;99.90
14079;DHT22;7115;50.150;8.568;2023-04-25T06:49:25;10.10;99.90
14079;DHT22;7115;50.150;8.568;2023-04-25T06:51:58;10.20;99.90
14079;DHT22;7115;50.150;8.568;2023-04-25T06:54:25;10.20;99.90
14079;DHT22;7115;50.150;8.568;2023-04-25T06:56:53;10.30;99.90
14079;DHT22;7115;50.150;8.568;2023-04-25T06:59:27;10.30;99.90
14079;DHT22;7115;50.150;8.568;2023-04-25T07:01:54;10.30;99.90
14079;DHT22;7115;50.150;8.568;2023-04-25T07:04:21;10.30;99.90
14079;DHT22;7115;50.150;8.568;2023-04-25T07:06:56;10.40;99.90
14079;DHT22;7115;50.150;8.568;2023-04-25T07:09:23;10.40;99.90
14079;DHT22;7115;50.150;8.568;2023-04-25T07:11:50;10.40;99.90
14079;DHT22;7115;50.150;8.568;2023-04-25T07:14:24;10.50;99.90
14079;DHT22;7115;50.150;8.568;2023-04-25T07:16:51;10.70;99.90
14079;DHT22;7115;50.150;8.568;2023-04-25T07:19:19;11.00;99.90
14079;DHT22;7115;50.150;8.568;2023-04-25T07:21:54;11.20;99.90
14079;DHT22;7115;50.150;8.568;2023-04-25T07:24:22;11.40;99.90
14079;DHT22;7115;50.150;8.568;2023-04-25T07:26:50;11.40;99.90
14079;DHT22;7115;50.150;8.568;2023-04-25T07:29:24;11.60;99.90
14079;DHT22;7115;50.150;8.568;2023-04-25T07:31:51;11.70;99.90
14079;DHT22;7115;50.150;8.568;2023-04-25T07:34:19;11.70;99.90
14079;DHT22;7115;50.150;8.568;2023-04-25T07:36:53;11.80;99.90
14079;DHT22;7115;50.150;8.568;2023-04-25T07:39:21;11.90;99.90
14079;DHT22;7115;50.150;8.568;2023-04-25T07:42:09;12.00;99.90
14079;DHT22;7115;50.150;8.568;2023-04-25T07:44:36;12.10;99.90
14079;DHT22;7115;50.150;8.568;2023-04-25T07:47:11;12.20;99.90
14079;DHT22;7115;50.150;8.568;2023-04-25T07:49:38;12.30;99.90
14079;DHT22;7115;50.150;8.568;2023-04-25T07:52:05;12.50;99.90
14079;DHT22;7115;50.150;8.568;2023-04-25T07:54:40;12.70;99.90
14079;DHT22;7115;50.150;8.568;2023-04-25T07:57:08;12.90;99.90
14079;DHT22;7115;50.150;8.568;2023-04-25T07:59:35;13.00;99.90
14079;DHT22;7115;50.150;8.568;2023-04-25T08:02:08;13.20;99.90
14079;DHT22;7115;50.150;8.568;2023-04-25T08:04:35;13.40;99.90
14079;DHT22;7115;50.150;8.568;2023-04-25T08:07:15;13.60;99.90
14079;DHT22;7115;50.150;8.568;2023-04-25T08:09:43;13.80;99.90
14079;DHT22;7115;50.150;8.568;2023-04-25T08:12:10;13.80;99.90
14079;DHT22;7115;50.150;8.568;2023-04-25T08:14:48;13.90;99.90
14079;DHT22;7115;50.150;8.568;2023-04-25T08:17:15;14.10;99.90
14079;DHT22;7115;50.150;8.568;2023-04-25T08:19:42;14.30;99.90
14079;DHT22;7115;50.150;8.568;2023-04-25T08:22:16;14.40;99.50
14079;DHT22;7115;50.150;8.568;2023-04-25T08:24:44;14.40;99.10
14079;DHT22;7115;50.150;8.568;2023-04-25T08:27:11;14.40;98.90
14079;DHT22;7115;50.150;8.568;2023-04-25T08:29:45;14.60;98.70
14079;DHT22;7115;50.150;8.568;2023-04-25T08:32:12;14.60;98.40
14079;DHT22;7115;50.150;8.568;2023-04-25T08:34:39;14.80;98.20
14079;DHT22;7115;50.150;8.568;2023-04-25T08:37:15;14.90;98.00
14079;DHT22;7115;50.150;8.568;2023-04-25T08:39:50;15.00;97.80
14079;DHT22;7115;50.150;8.568;2023-04-25T08:42:33;15.20;97.60
14079;DHT22;7115;50.150;8.568;2023-04-25T08:45:02;15.10;97.70
14079;DHT22;7115;50.150;8.568;2023-04-25T08:47:33;15.00;97.40
14079;DHT22;7115;50.150;8.568;2023-04-25T08:50:07;14.90;97.30
14079;DHT22;7115;50.150;8.568;2023-04-25T08:52:37;14.80;97.40
14079;DHT22;7115;50.150;8.568;2023-04-25T08:55:09;14.80;97.30
14079;DHT22;7115;50.150;8.568;2023-04-25T08:57:44;15.00;97.20
14079;DHT22;7115;50.150;8.568;2023-04-25T09:00:13;15.20;96.90
14079;DHT22;7115;50.150;8.568;2023-04-25T09:02:42;15.40;96.60
14079;DHT22;7115;50.150;8.568;2023-04-25T09:05:17;15.60;96.30
14079;DHT22;7115;50.150;8.568;2023-04-25T09:07:47;15.90;96.00
14079;DHT22;7115;50.150;8.568;2023-04-25T09:10:18;16.00;95.60
14079;DHT22;7115;50.150;8.568;2023-04-25T09:13:02;16.00;95.40
14079;DHT22;7115;50.150;8.568;2023-04-25T09:15:31;15.90;95.20
14079;DHT22;7115;50.150;8.568;2023-04-25T09:18:05;15.90;95.20
14079;DHT22;7115;50.150;8.568;2023-04-25T09:20:41;15.80;95.00
14079;DHT22;7115;50.150;8.568;2023-04-25T09:23:19;15.80;94.80
14079;DHT22;7115;50.150;8.568;2023-04-25T09:25:50;15.60;94.80
14079;DHT22;7115;50.150;8.568;2023-04-25T09:28:24;15.50;94.70
14079;DHT22;7115;50.150;8.568;2023-04-25T09:30:56;15.50;94.80
14079;DHT22;7115;50.150;8.568;2023-04-25T09:33:40;15.60;94.80
14079;DHT22;7115;50.150;8.568;2023-04-25T09:36:09;15.70;94.60
14079;DHT22;7115;50.150;8.568;2023-04-25T09:38:45;15.80;94.60
14079;DHT22;7115;50.150;8.568;2023-04-25T09:41:26;16.00;94.50
14079;DHT22;7115;50.150;8.568;2023-04-25T09:44:00;16.30;94.20
14079;DHT22;7115;50.150;8.568;2023-04-25T09:46:33;16.60;94.00
14079;DHT22;7115;50.150;8.568;2023-04-25T09:49:15;16.80;93.50
14079;DHT22;7115;50.150;8.568;2023-04-25T09:51:55;16.90;93.20
14079;DHT22;7115;50.150;8.568;2023-04-25T09:54:29;16.80;93.00
14079;DHT22;7115;50.150;8.568;2023-04-25T09:56:59;16.70;92.90
14079;DHT22;7115;50.150;8.568;2023-04-25T09:59:43;16.60;92.80
14079;DHT22;7115;50.150;8.568;2023-04-25T10:02:11;16.50;92.90
14079;DHT22;7115;50.150;8.568;2023-04-25T10:04:39;16.50;92.70
14079;DHT22;7115;50.150;8.568;2023-04-25T10:07:13;16.60;92.50
14079;DHT22;7115;50.150;8.568;2023-04-25T10:09:41;16.50;92.20
14079;DHT22;7115;50.150;8.568;2023-04-25T10:12:10;16.50;92.10
14079;DHT22;7115;50.150;8.568;2023-04-25T10:14:44;16.50;92.00
14079;DHT22;7115;50.150;8.568;2023-04-25T10:17:12;16.50;92.00
14079;DHT22;7115;50.150;8.568;2023-04-25T10:19:40;16.60;90.10
14079;DHT22;7115;50.150;8.568;2023-04-25T10:22:17;16.50;90.70
14079;DHT22;7115;50.150;8.568;2023-04-25T10:24:46;16.40;91.00
14079;DHT22;7115;50.150;8.568;2023-04-25T10:27:14;16.10;91.00
14079;DHT22;7115;50.150;8.568;2023-04-25T10:30:01;15.80;91.20
14079;DHT22;7115;50.150;8.568;2023-04-25T10:32:31;15.50;91.50
14079;DHT22;7115;50.150;8.568;2023-04-25T10:35:13;15.30;91.80
14079;DHT22;7115;50.150;8.568;2023-04-25T10:38:03;15.10;92.30
14079;DHT22;7115;50.150;8.568;2023-04-25T10:40:37;15.00;92.70
14079;DHT22;7115;50.150;8.568;2023-04-25T10:43:35;14.80;92.90
14079;DHT22;7115;50.150;8.568;2023-04-25T10:46:15;14.60;93.20
14079;DHT22;7115;50.150;8.568;2023-04-25T10:48:50;14.50;93.40
14079;DHT22;7115;50.150;8.568;2023-04-25T10:51:25;14.30;93.60
14079;DHT22;7115;50.150;8.568;2023-04-25T10:53:57;14.20;93.80
14079;DHT22;7115;50.150;8.568;2023-04-25T10:56:33;14.20;94.00
14079;DHT22;7115;50.150;8.568;2023-04-25T10:59:07;14.10;94.10
14079;DHT22;7115;50.150;8.568;2023-04-25T11:01:42;14.20;94.20
14079;DHT22;7115;50.150;8.568;2023-04-25T11:04:21;14.20;94.30
14079;DHT22;7115;50.150;8.568;2023-04-25T11:07:03;14.10;94.20
14079;DHT22;7115;50.150;8.568;2023-04-25T11:09:34;14.10;94.20
14079;DHT22;7115;50.150;8.568;2023-04-25T11:12:09;14.00;94.20
14079;DHT22;7115;50.150;8.568;2023-04-25T11:14:40;13.90;94.20
14079;DHT22;7115;50.150;8.568;2023-04-25T11:17:07;13.90;94.30
14079;DHT22;7115;50.150;8.568;2023-04-25T11:19:40;13.80;94.20
14079;DHT22;7115;50.150;8.568;2023-04-25T11:22:08;13.70;94.20
14079;DHT22;7115;50.150;8.568;2023-04-25T11:24:38;13.60;94.20
14079;DHT22;7115;50.150;8.568;2023-04-25T11:27:12;13.50;94.10
14079;DHT22;7115;50.150;8.568;2023-04-25T11:29:40;13.60;94.10
14079;DHT22;7115;50.150;8.568;2023-04-25T11:32:08;13.60;94.00
14079;DHT22;7115;50.150;8.568;2023-04-25T11:34:44;13.90;94.00
14079;DHT22;7115;50.150;8.568;2023-04-25T11:37:14;14.20;93.80
14079;DHT22;7115;50.150;8.568;2023-04-25T11:39:44;14.60;93.70
14079;DHT22;7115;50.150;8.568;2023-04-25T11:42:26;15.00;93.30
14079;DHT22;7115;50.150;8.568;2023-04-25T11:44:54;15.40;92.80
14079;DHT22;7115;50.150;8.568;2023-04-25T11:47:29;15.40;92.30
14079;DHT22;7115;50.150;8.568;2023-04-25T11:49:58;15.40;92.00
14079;DHT22;7115;50.150;8.568;2023-04-25T11:52:36;15.50;91.70
14079;DHT22;7115;50.150;8.568;2023-04-25T11:55:12;15.30;91.40
14079;DHT22;7115;50.150;8.568;2023-04-25T11:57:39;15.20;91.70
14079;DHT22;7115;50.150;8.568;2023-04-25T12:00:19;15.00;91.70
14079;DHT22;7115;50.150;8.568;2023-04-25T12:02:55;14.90;91.60
14079;DHT22;7115;50.150;8.568;2023-04-25T12:05:25;14.80;91.70
14079;DHT22;7115;50.150;8.568;2023-04-25T12:08:10;14.60;91.70
14079;DHT22;7115;50.150;8.568;2023-04-25T12:10:45;14.60;91.80
14079;DHT22;7115;50.150;8.568;2023-04-25T12:13:23;14.50;91.80
14079;DHT22;7115;50.150;8.568;2023-04-25T12:16:00;14.40;91.70
14079;DHT22;7115;50.150;8.568;2023-04-25T12:18:27;14.30;91.80
14079;DHT22;7115;50.150;8.568;2023-04-25T12:20:54;14.20;92.20
14079;DHT22;7115;50.150;8.568;2023-04-25T12:23:29;14.10;91.90
14079;DHT22;7115;50.150;8.568;2023-04-25T12:25:57;13.90;92.00
14079;DHT22;7115;50.150;8.568;2023-04-25T12:28:25;13.80;92.10
14079;DHT22;7115;50.150;8.568;2023-04-25T12:31:02;13.60;92.30
14079;DHT22;7115;50.150;8.568;2023-04-25T12:33:32;13.50;92.30
14079;DHT22;7115;50.150;8.568;2023-04-25T12:36:00;13.40;92.50
14079;DHT22;7115;50.150;8.568;2023-04-25T12:38:38;13.40;92.60
14079;DHT22;7115;50.150;8.568;2023-04-25T12:41:19;13.30;92.70
14079;DHT22;7115;50.150;8.568;2023-04-25T12:43:52;13.40;92.80
14079;DHT22;7115;50.150;8.568;2023-04-25T12:46:20;13.60;92.90
14079;DHT22;7115;50.150;8.568;2023-04-25T12:48:49;13.90;92.90
14079;DHT22;7115;50.150;8.568;2023-04-25T12:51:37;14.10;92.70
14079;DHT22;7115;50.150;8.568;2023-04-25T12:54:05;14.40;92.40
14079;DHT22;7115;50.150;8.568;2023-04-25T12:56:41;14.60;92.20
14079;DHT22;7115;50.150;8.568;2023-04-25T12:59:08;14.80;91.80
14079;DHT22;7115;50.150;8.568;2023-04-25T13:01:37;15.00;91.70
14079;DHT22;7115;50.150;8.568;2023-04-25T13:04:11;15.00;91.30
14079;DHT22;7115;50.150;8.568;2023-04-25T13:06:38;15.00;91.20
14079;DHT22;7115;50.150;8.568;2023-04-25T13:09:05;15.00;91.00
14079;DHT22;7115;50.150;8.568;2023-04-25T13:11:39;14.90;90.90
14079;DHT22;7115;50.150;8.568;2023-04-25T13:14:08;14.80;91.10
14079;DHT22;7115;50.150;8.568;2023-04-25T13:16:36;14.80;90.70
14079;DHT22;7115;50.150;8.568;2023-04-25T13:19:09;14.80;90.50
14079;DHT22;7115;50.150;8.568;2023-04-25T13:21:38;14.80;90.50
14079;DHT22;7115;50.150;8.568;2023-04-25T13:24:05;14.90;90.50
14079;DHT22;7115;50.150;8.568;2023-04-25T13:26:41;15.10;90.60
14079;DHT22;7115;50.150;8.568;2023-04-25T13:29:07;15.20;90.80
14079;DHT22;7115;50.150;8.568;2023-04-25T13:31:34;15.30;90.20
14079;DHT22;7115;50.150;8.568;2023-04-25T13:34:13;15.20;90.40
14079;DHT22;7115;50.150;8.568;2023-04-25T13:36:39;15.20;90.10
14079;DHT22;7115;50.150;8.568;2023-04-25T13:39:06;15.30;88.80
14079;DHT22;7115;50.150;8.568;2023-04-25T13:41:40;15.30;88.80
14079;DHT22;7115;50.150;8.568;2023-04-25T13:44:13;15.30;88.90
14079;DHT22;7115;50.150;8.568;2023-04-25T13:46:47;15.30;88.90
14079;DHT22;7115;50.150;8.568;2023-04-25T13:49:15;15.30;89.00
14079;DHT22;7115;50.150;8.568;2023-04-25T13:51:43;15.20;89.10
14079;DHT22;7115;50.150;8.568;2023-04-25T13:54:16;15.10;89.40
14079;DHT22;7115;50.150;8.568;2023-04-25T13:56:45;15.10;89.50
14079;DHT22;7115;50.150;8.568;2023-04-25T13:59:12;15.20;89.60
14079;DHT22;7115;50.150;8.568;2023-04-25T14:01:39;15.30;89.60
14079;DHT22;7115;50.150;8.568;2023-04-25T14:04:07;15.30;89.40
14079;DHT22;7115;50.150;8.568;2023-04-25T14:06:35;15.40;88.90
14079;DHT22;7115;50.150;8.568;2023-04-25T14:09:03;15.30;88.50
14079;DHT22;7115;50.150;8.568;2023-04-25T14:11:32;15.30;88.00
14079;DHT22;7115;50.150;8.568;2023-04-25T14:14:00;15.30;88.40
14079;DHT22;7115;50.150;8.568;2023-04-25T14:16:27;15.30;87.50
14079;DHT22;7115;50.150;8.568;2023-04-25T14:18:54;15.20;87.10
14079;DHT22;7115;50.150;8.568;2023-04-25T14:21:22;15.10;87.00
14079;DHT22;7115;50.150;8.568;2023-04-25T14:23:50;15.00;86.60
14079;DHT22;7115;50.150;8.568;2023-04-25T14:26:17;14.90;86.20
14079;DHT22;7115;50.150;8.568;2023-04-25T14:28:45;14.90;86.10
14079;DHT22;7115;50.150;8.568;2023-04-25T14:31:12;14.80;86.00
14079;DHT22;7115;50.150;8.568;2023-04-25T14:33:39;14.70;86.20
14079;DHT22;7115;50.150;8.568;2023-04-25T14:36:09;14.70;86.50
14079;DHT22;7115;50.150;8.568;2023-04-25T14:38:38;14.60;86.70
14079;DHT22;7115;50.150;8.568;2023-04-25T14:41:06;14.60;87.00
14079;DHT22;7115;50.150;8.568;2023-04-25T14:43:33;14.60;87.10
14079;DHT22;7115;50.150;8.568;2023-04-25T14:46:00;14.60;87.00
14079;DHT22;7115;50.150;8.568;2023-04-25T14:48:28;14.50;86.80
14079;DHT22;7115;50.150;8.568;2023-04-25T14:50:55;14.40;86.90
14079;DHT22;7115;50.150;8.568;2023-04-25T14:53:27;14.30;87.00
14079;DHT22;7115;50.150;8.568;2023-04-25T14:55:54;14.30;87.00
14079;DHT22;7115;50.150;8.568;2023-04-25T14:58:22;14.30;87.10
14079;DHT22;7115;50.150;8.568;2023-04-25T15:00:49;14.20;87.10
14079;DHT22;7115;50.150;8.568;2023-04-25T15:03:17;14.20;87.30
14079;DHT22;7115;50.150;8.568;2023-04-25T15:05:44;14.30;87.20
14079;DHT22;7115;50.150;8.568;2023-04-25T15:08:11;14.30;87.40
14079;DHT22;7115;50.150;8.568;2023-04-25T15:10:38;14.20;87.40
14079;DHT22;7115;50.150;8.568;2023-04-25T15:13:05;14.20;87.70
14079;DHT22;7115;50.150;8.568;2023-04-25T15:15:34;14.10;87.80
14079;DHT22;7115;50.150;8.568;2023-04-25T15:18:01;14.10;88.00
14079;DHT22;7115;50.150;8.568;2023-04-25T15:20:28;14.00;88.00
14079;DHT22;7115;50.150;8.568;2023-04-25T15:22:57;13.90;88.20
14079;DHT22;7115;50.150;8.568;2023-04-25T15:25:24;14.00;88.40
14079;DHT22;7115;50.150;8.568;2023-04-25T15:27:51;14.00;88.50
14079;DHT22;7115;50.150;8.568;2023-04-25T15:30:20;14.10;88.70
14079;DHT22;7115;50.150;8.568;2023-04-25T15:32:48;14.20;88.80
14079;DHT22;7115;50.150;8.568;2023-04-25T15:35:15;14.30;88.80
14079;DHT22;7115;50.150;8.568;2023-04-25T15:37:42;14.20;88.50
14079;DHT22;7115;50.150;8.568;2023-04-25T15:40:11;14.30;88.20
14079;DHT22;7115;50.150;8.568;2023-04-25T15:42:41;14.30;87.40
14079;DHT22;7115;50.150;8.568;2023-04-25T15:45:10;14.20;86.60
14079;DHT22;7115;50.150;8.568;2023-04-25T15:47:38;14.20;86.30
14079;DHT22;7115;50.150;8.568;2023-04-25T15:50:07;14.20;86.20
14079;DHT22;7115;50.150;8.568;2023-04-25T15:52:36;14.30;86.20
14079;DHT22;7115;50.150;8.568;2023-04-25T15:55:03;14.40;86.00
14079;DHT22;7115;50.150;8.568;2023-04-25T15:57:32;14.40;85.70
14079;DHT22;7115;50.150;8.568;2023-04-25T15:59:59;14.40;85.60
14079;DHT22;7115;50.150;8.568;2023-04-25T16:02:27;14.40;85.20
14079;DHT22;7115;50.150;8.568;2023-04-25T16:04:56;14.30;84.80
14079;DHT22;7115;50.150;8.568;2023-04-25T16:07:25;14.20;84.40
14079;DHT22;7115;50.150;8.568;2023-04-25T16:09:51;14.10;84.10
14079;DHT22;7115;50.150;8.568;2023-04-25T16:12:18;14.10;84.30